Archival Weather

Moundou

Moundou, Chad (FTTD)

Report from: Saturday, March 18, 2023 12:00 PM WAT
Current time: Friday, April 19, 2024 11:08 AM WAT

Current weather – Weather history – Daily summaries
Weather forecast

Temperature39.0°C (102.2°F)
Heat index36.5°C (97.8°F)
Dew point6.0°C (42.8°F)
Winds 4 kts (2.1 m/s, 4.6 mph) North (360°)
Clouds Sky clear
Altimeter29.83 in.Hg (1010 mB)
Relative humidity13 %
Density altitude2,949 ft. (899 m)
Remarks Ceiling and visibility OK
Flight conditions Visual Meteorological Conditions
Raw dataFTTD 181100Z 36004KT CAVOK 39/06 Q1010
An error has occurred. This application may no longer respond until reloaded. Reload 🗙